sensor_id;sensor_type;location;lat;lon;timestamp;pressure;altitude;pressure_sealevel;temperature;humidity
57086;BME280;42964;42.910;23.792;2023-08-12T00:03:53;98235.91;;;15.40;84.71
57086;BME280;42964;42.910;23.792;2023-08-12T00:08:52;98232.50;;;15.33;85.00
57086;BME280;42964;42.910;23.792;2023-08-12T00:13:51;98230.75;;;15.34;84.89
57086;BME280;42964;42.910;23.792;2023-08-12T00:18:50;98230.84;;;15.24;85.63
57086;BME280;42964;42.910;23.792;2023-08-12T00:23:49;98206.56;;;15.15;85.52
57086;BME280;42964;42.910;23.792;2023-08-12T00:28:48;98227.44;;;15.21;86.58
57086;BME280;42964;42.910;23.792;2023-08-12T00:33:48;98225.78;;;15.14;87.01
57086;BME280;42964;42.910;23.792;2023-08-12T00:38:47;98225.81;;;15.09;87.65
57086;BME280;42964;42.910;23.792;2023-08-12T00:43:46;98229.41;;;15.02;88.00
57086;BME280;42964;42.910;23.792;2023-08-12T00:48:45;98221.59;;;14.97;87.72
57086;BME280;42964;42.910;23.792;2023-08-12T00:53:45;98219.84;;;14.98;87.73
57086;BME280;42964;42.910;23.792;2023-08-12T00:58:45;98169.63;;;14.70;87.56
57086;BME280;42964;42.910;23.792;2023-08-12T01:03:44;98170.66;;;14.53;89.22
57086;BME280;42964;42.910;23.792;2023-08-12T01:08:43;98215.72;;;14.75;89.80
57086;BME280;42964;42.910;23.792;2023-08-12T01:14:06;98202.00;;;14.53;90.11
57086;BME280;42964;42.910;23.792;2023-08-12T01:19:10;98201.13;;;14.51;90.11
57086;BME280;42964;42.910;23.792;2023-08-12T01:24:09;98219.41;;;14.50;90.45
57086;BME280;42964;42.910;23.792;2023-08-12T01:29:08;98218.63;;;14.43;90.22
57086;BME280;42964;42.910;23.792;2023-08-12T01:34:33;98212.56;;;14.41;90.83
57086;BME280;42964;42.910;23.792;2023-08-12T01:39:35;98217.78;;;14.39;90.56
57086;BME280;42964;42.910;23.792;2023-08-12T01:44:35;98210.84;;;14.37;90.00
57086;BME280;42964;42.910;23.792;2023-08-12T01:49:34;98210.88;;;14.32;90.15
57086;BME280;42964;42.910;23.792;2023-08-12T01:54:33;98210.00;;;14.35;90.52
57086;BME280;42964;42.910;23.792;2023-08-12T01:59:33;98211.78;;;14.31;90.22
57086;BME280;42964;42.910;23.792;2023-08-12T02:04:34;98147.72;;;13.89;90.69
57086;BME280;42964;42.910;23.792;2023-08-12T02:09:33;98203.13;;;14.25;90.87
57086;BME280;42964;42.910;23.792;2023-08-12T02:14:32;98204.88;;;14.23;90.44
57086;BME280;42964;42.910;23.792;2023-08-12T02:19:34;98204.00;;;14.25;90.20
57086;BME280;42964;42.910;23.792;2023-08-12T02:24:33;98202.31;;;14.18;90.25
57086;BME280;42964;42.910;23.792;2023-08-12T02:29:32;98214.53;;;14.13;91.05
57086;BME280;42964;42.910;23.792;2023-08-12T02:34:31;98195.47;;;14.00;90.56
57086;BME280;42964;42.910;23.792;2023-08-12T02:39:30;98214.53;;;14.10;90.34
57086;BME280;42964;42.910;23.792;2023-08-12T02:44:29;98211.94;;;14.13;90.43
57086;BME280;42964;42.910;23.792;2023-08-12T02:49:28;98218.06;;;14.06;90.38
57086;BME280;42964;42.910;23.792;2023-08-12T02:54:27;98196.41;;;13.93;90.65
57086;BME280;42964;42.910;23.792;2023-08-12T02:59:26;98225.06;;;13.96;90.48
57086;BME280;42964;42.910;23.792;2023-08-12T03:04:25;98169.72;;;13.59;90.46
57086;BME280;42964;42.910;23.792;2023-08-12T03:09:24;98219.06;;;13.88;90.39
57086;BME280;42964;42.910;23.792;2023-08-12T03:14:23;98218.22;;;13.87;90.58
57086;BME280;42964;42.910;23.792;2023-08-12T03:19:22;98228.69;;;13.78;90.42
57086;BME280;42964;42.910;23.792;2023-08-12T03:24:21;98229.56;;;13.78;90.49
57086;BME280;42964;42.910;23.792;2023-08-12T03:29:20;98187.13;;;13.44;91.00
57086;BME280;42964;42.910;23.792;2023-08-12T03:34:19;98234.84;;;13.65;91.34
57086;BME280;42964;42.910;23.792;2023-08-12T03:39:18;98239.22;;;13.60;91.39
57086;BME280;42964;42.910;23.792;2023-08-12T03:44:17;98234.03;;;13.56;91.92
57086;BME280;42964;42.910;23.792;2023-08-12T03:49:16;98246.22;;;13.54;91.71
57086;BME280;42964;42.910;23.792;2023-08-12T03:54:15;98246.19;;;13.56;91.99
57086;BME280;42964;42.910;23.792;2023-08-12T03:59:14;98252.28;;;13.56;92.01
57086;BME280;42964;42.910;23.792;2023-08-12T04:04:12;98247.94;;;13.59;91.65
57086;BME280;42964;42.910;23.792;2023-08-12T04:09:11;98256.56;;;13.67;91.62
57086;BME280;42964;42.910;23.792;2023-08-12T04:14:10;98261.78;;;13.67;91.53
57086;BME280;42964;42.910;23.792;2023-08-12T04:19:09;98258.28;;;13.68;91.91
57086;BME280;42964;42.910;23.792;2023-08-12T04:24:08;98252.19;;;13.72;91.42
57086;BME280;42964;42.910;23.792;2023-08-12T04:29:07;98259.09;;;13.79;91.15
57086;BME280;42964;42.910;23.792;2023-08-12T04:34:06;98265.16;;;13.87;90.99
57086;BME280;42964;42.910;23.792;2023-08-12T04:39:05;98229.59;;;13.75;90.95
57086;BME280;42964;42.910;23.792;2023-08-12T04:44:04;98261.56;;;14.01;91.12
57086;BME280;42964;42.910;23.792;2023-08-12T04:49:03;98230.25;;;14.04;90.51
57086;BME280;42964;42.910;23.792;2023-08-12T04:54:02;98266.72;;;14.16;90.24
57086;BME280;42964;42.910;23.792;2023-08-12T04:59:01;98255.34;;;14.22;90.45
57086;BME280;42964;42.910;23.792;2023-08-12T05:04:00;98259.59;;;14.36;89.98
57086;BME280;42964;42.910;23.792;2023-08-12T05:08:59;98259.44;;;14.55;89.67
57086;BME280;42964;42.910;23.792;2023-08-12T05:13:58;98268.88;;;14.68;89.62
57086;BME280;42964;42.910;23.792;2023-08-12T05:18:58;98256.56;;;14.84;89.54
57086;BME280;42964;42.910;23.792;2023-08-12T05:23:57;98257.25;;;15.03;89.72
57086;BME280;42964;42.910;23.792;2023-08-12T05:28:55;98250.78;;;15.35;88.58
57086;BME280;42964;42.910;23.792;2023-08-12T05:33:54;98255.69;;;15.59;88.27
57086;BME280;42964;42.910;23.792;2023-08-12T05:38:53;98247.53;;;15.85;85.06
57086;BME280;42964;42.910;23.792;2023-08-12T05:43:52;98250.84;;;15.98;85.66
57086;BME280;42964;42.910;23.792;2023-08-12T05:48:51;98234.00;;;16.16;84.37
57086;BME280;42964;42.910;23.792;2023-08-12T05:53:50;98243.50;;;16.22;84.09
57086;BME280;42964;42.910;23.792;2023-08-12T05:58:48;98230.19;;;16.34;82.85
57086;BME280;42964;42.910;23.792;2023-08-12T06:03:47;98230.88;;;16.45;82.89
57086;BME280;42964;42.910;23.792;2023-08-12T06:08:46;98242.81;;;16.63;82.64
57086;BME280;42964;42.910;23.792;2023-08-12T06:13:45;98228.53;;;16.81;81.94
57086;BME280;42964;42.910;23.792;2023-08-12T06:18:44;98231.63;;;17.03;80.52
57086;BME280;42964;42.910;23.792;2023-08-12T06:23:43;98230.53;;;17.15;79.38
57086;BME280;42964;42.910;23.792;2023-08-12T06:28:41;98210.22;;;17.23;78.83
57086;BME280;42964;42.910;23.792;2023-08-12T06:33:40;98223.31;;;17.67;76.92
57086;BME280;42964;42.910;23.792;2023-08-12T06:38:39;98210.47;;;17.95;74.34
57086;BME280;42964;42.910;23.792;2023-08-12T06:43:38;98215.91;;;18.23;73.87
57086;BME280;42964;42.910;23.792;2023-08-12T06:48:37;98209.19;;;18.47;71.75
57086;BME280;42964;42.910;23.792;2023-08-12T06:53:37;98209.13;;;18.50;69.36
57086;BME280;42964;42.910;23.792;2023-08-12T06:58:36;98201.44;;;18.77;67.95
57086;BME280;42964;42.910;23.792;2023-08-12T07:03:35;98186.41;;;18.80;66.74
57086;BME280;42964;42.910;23.792;2023-08-12T07:08:34;98199.63;;;19.10;67.50
57086;BME280;42964;42.910;23.792;2023-08-12T07:13:33;98197.72;;;19.47;66.98
57086;BME280;42964;42.910;23.792;2023-08-12T07:18:32;98191.28;;;19.57;63.72
57086;BME280;42964;42.910;23.792;2023-08-12T07:23:31;98194.31;;;19.73;63.23
57086;BME280;42964;42.910;23.792;2023-08-12T07:28:30;98192.38;;;20.06;61.18
57086;BME280;42964;42.910;23.792;2023-08-12T07:33:29;98191.91;;;20.21;60.00
57086;BME280;42964;42.910;23.792;2023-08-12T07:38:28;98189.38;;;20.45;56.42
57086;BME280;42964;42.910;23.792;2023-08-12T07:43:27;98181.63;;;20.65;54.84
57086;BME280;42964;42.910;23.792;2023-08-12T07:48:26;98175.94;;;20.78;54.23
57086;BME280;42964;42.910;23.792;2023-08-12T07:53:25;98167.72;;;21.10;54.19
57086;BME280;42964;42.910;23.792;2023-08-12T07:58:24;98161.31;;;21.41;53.97
57086;BME280;42964;42.910;23.792;2023-08-12T08:03:24;98156.81;;;21.67;51.67
57086;BME280;42964;42.910;23.792;2023-08-12T08:08:24;98160.72;;;22.02;50.72
57086;BME280;42964;42.910;23.792;2023-08-12T08:13:22;98162.16;;;22.09;47.33
57086;BME280;42964;42.910;23.792;2023-08-12T08:18:21;98135.50;;;22.36;47.58
57086;BME280;42964;42.910;23.792;2023-08-12T08:23:20;98157.50;;;22.57;42.52
57086;BME280;42964;42.910;23.792;2023-08-12T08:28:19;98154.63;;;22.84;43.78
57086;BME280;42964;42.910;23.792;2023-08-12T08:33:18;98149.16;;;23.07;44.27
57086;BME280;42964;42.910;23.792;2023-08-12T08:38:17;98142.72;;;23.32;44.75
57086;BME280;42964;42.910;23.792;2023-08-12T08:43:20;98143.25;;;23.40;44.86
57086;BME280;42964;42.910;23.792;2023-08-12T08:48:20;98140.69;;;23.57;44.95
57086;BME280;42964;42.910;23.792;2023-08-12T08:53:19;98143.25;;;23.78;45.23
57086;BME280;42964;42.910;23.792;2023-08-12T08:58:18;98130.63;;;23.83;43.35
57086;BME280;42964;42.910;23.792;2023-08-12T09:03:18;98139.00;;;23.74;42.86
57086;BME280;42964;42.910;23.792;2023-08-12T09:08:19;98127.56;;;23.73;42.72
57086;BME280;42964;42.910;23.792;2023-08-12T09:13:18;98121.94;;;23.98;43.57
57086;BME280;42964;42.910;23.792;2023-08-12T09:18:17;98054.44;;;23.69;42.28
57086;BME280;42964;42.910;23.792;2023-08-12T09:23:16;98122.34;;;24.25;42.85
57086;BME280;42964;42.910;23.792;2023-08-12T09:28:17;98114.81;;;24.16;41.38
57086;BME280;42964;42.910;23.792;2023-08-12T09:33:16;98104.34;;;24.32;42.04
57086;BME280;42964;42.910;23.792;2023-08-12T09:38:22;98060.31;;;24.11;40.35
57086;BME280;42964;42.910;23.792;2023-08-12T09:43:24;98101.25;;;24.24;41.15
57086;BME280;42964;42.910;23.792;2023-08-12T09:48:26;98083.84;;;24.69;40.84
57086;BME280;42964;42.910;23.792;2023-08-12T09:53:26;98073.22;;;24.86;40.21
57086;BME280;42964;42.910;23.792;2023-08-12T09:58:26;98072.41;;;24.84;40.84
57086;BME280;42964;42.910;23.792;2023-08-12T10:03:28;98064.78;;;25.11;40.00
57086;BME280;42964;42.910;23.792;2023-08-12T10:08:27;98070.34;;;25.07;38.42
57086;BME280;42964;42.910;23.792;2023-08-12T10:13:28;98050.47;;;25.14;39.11
57086;BME280;42964;42.910;23.792;2023-08-12T10:18:28;98063.66;;;25.31;38.51
57086;BME280;42964;42.910;23.792;2023-08-12T10:23:29;98039.00;;;25.29;38.27
57086;BME280;42964;42.910;23.792;2023-08-12T10:28:29;98020.72;;;25.39;36.65
57086;BME280;42964;42.910;23.792;2023-08-12T10:33:31;98042.19;;;25.82;36.98
57086;BME280;42964;42.910;23.792;2023-08-12T10:38:33;97963.22;;;25.38;36.46
57086;BME280;42964;42.910;23.792;2023-08-12T10:43:48;98037.69;;;25.99;36.62
57086;BME280;42964;42.910;23.792;2023-08-12T10:49:18;98040.81;;;25.91;36.76
57086;BME280;42964;42.910;23.792;2023-08-12T10:54:18;98042.81;;;26.02;36.70
57086;BME280;42964;42.910;23.792;2023-08-12T10:59:53;98032.38;;;25.99;37.50
57086;BME280;42964;42.910;23.792;2023-08-12T11:04:57;98032.28;;;26.30;36.95
57086;BME280;42964;42.910;23.792;2023-08-12T11:10:00;98024.19;;;26.46;36.30
57086;BME280;42964;42.910;23.792;2023-08-12T11:15:03;97989.72;;;26.59;35.33
57086;BME280;42964;42.910;23.792;2023-08-12T11:20:10;97988.84;;;26.73;35.81
57086;BME280;42964;42.910;23.792;2023-08-12T11:25:12;98006.44;;;26.75;35.31
57086;BME280;42964;42.910;23.792;2023-08-12T11:30:13;98007.09;;;27.08;35.59
57086;BME280;42964;42.910;23.792;2023-08-12T11:35:15;98002.41;;;27.11;35.22
57086;BME280;42964;42.910;23.792;2023-08-12T11:40:16;98004.59;;;27.19;35.12
57086;BME280;42964;42.910;23.792;2023-08-12T11:45:18;98004.84;;;27.29;34.12
57086;BME280;42964;42.910;23.792;2023-08-12T11:50:18;97997.47;;;27.47;34.81
57086;BME280;42964;42.910;23.792;2023-08-12T11:55:17;97999.44;;;27.70;33.20
57086;BME280;42964;42.910;23.792;2023-08-12T12:00:17;97989.38;;;27.48;33.53
57086;BME280;42964;42.910;23.792;2023-08-12T12:05:22;98002.47;;;27.51;33.71
57086;BME280;42964;42.910;23.792;2023-08-12T12:10:29;97985.03;;;27.60;33.05
57086;BME280;42964;42.910;23.792;2023-08-12T12:15:28;97966.38;;;27.73;32.88
57086;BME280;42964;42.910;23.792;2023-08-12T12:20:27;97971.44;;;28.03;33.06
57086;BME280;42964;42.910;23.792;2023-08-12T12:25:28;97972.19;;;28.05;32.29
57086;BME280;42964;42.910;23.792;2023-08-12T12:30:27;97974.22;;;27.49;32.67
57086;BME280;42964;42.910;23.792;2023-08-12T12:35:25;97972.16;;;27.79;33.18
57086;BME280;42964;42.910;23.792;2023-08-12T12:40:25;97959.63;;;28.33;32.68
57086;BME280;42964;42.910;23.792;2023-08-12T12:45:24;97958.31;;;28.64;32.75
57086;BME280;42964;42.910;23.792;2023-08-12T12:50:23;97946.06;;;28.74;31.34
57086;BME280;42964;42.910;23.792;2023-08-12T12:55:22;97949.56;;;28.75;31.49
57086;BME280;42964;42.910;23.792;2023-08-12T13:00:21;97947.13;;;28.59;31.38
57086;BME280;42964;42.910;23.792;2023-08-12T13:05:20;97937.31;;;28.46;32.45
57086;BME280;42964;42.910;23.792;2023-08-12T13:10:19;97937.63;;;28.42;32.24
57086;BME280;42964;42.910;23.792;2023-08-12T13:15:18;97947.00;;;28.60;31.58
57086;BME280;42964;42.910;23.792;2023-08-12T13:20:17;97943.38;;;28.74;30.51
57086;BME280;42964;42.910;23.792;2023-08-12T13:25:16;97929.63;;;28.67;30.61
57086;BME280;42964;42.910;23.792;2023-08-12T13:30:15;97930.16;;;28.47;31.00
57086;BME280;42964;42.910;23.792;2023-08-12T13:35:14;97939.31;;;28.69;30.47
57086;BME280;42964;42.910;23.792;2023-08-12T13:40:13;97932.91;;;28.71;30.32
57086;BME280;42964;42.910;23.792;2023-08-12T13:45:13;97938.50;;;28.17;30.20
57086;BME280;42964;42.910;23.792;2023-08-12T13:50:12;97936.22;;;27.98;30.91
57086;BME280;42964;42.910;23.792;2023-08-12T13:55:12;97933.56;;;27.98;31.47
57086;BME280;42964;42.910;23.792;2023-08-12T14:00:11;97934.56;;;28.10;31.29
57086;BME280;42964;42.910;23.792;2023-08-12T14:05:11;97932.09;;;28.07;31.04
57086;BME280;42964;42.910;23.792;2023-08-12T14:10:10;97931.09;;;27.82;31.06
57086;BME280;42964;42.910;23.792;2023-08-12T14:15:09;97933.97;;;27.66;30.45
57086;BME280;42964;42.910;23.792;2023-08-12T14:20:09;97924.63;;;27.99;29.47
57086;BME280;42964;42.910;23.792;2023-08-12T14:25:08;97887.91;;;27.90;30.15
57086;BME280;42964;42.910;23.792;2023-08-12T14:30:08;97924.50;;;28.00;28.37
57086;BME280;42964;42.910;23.792;2023-08-12T14:35:07;97931.66;;;28.00;28.25
57086;BME280;42964;42.910;23.792;2023-08-12T14:40:07;97895.38;;;28.10;29.18
57086;BME280;42964;42.910;23.792;2023-08-12T14:45:08;97927.09;;;28.28;29.24
57086;BME280;42964;42.910;23.792;2023-08-12T14:50:07;97925.81;;;28.20;30.07
57086;BME280;42964;42.910;23.792;2023-08-12T14:55:07;97916.19;;;28.31;30.06
57086;BME280;42964;42.910;23.792;2023-08-12T15:00:07;97913.97;;;28.12;29.87
57086;BME280;42964;42.910;23.792;2023-08-12T15:05:09;97897.28;;;27.95;30.69
57086;BME280;42964;42.910;23.792;2023-08-12T15:10:08;97904.66;;;28.04;30.37
57086;BME280;42964;42.910;23.792;2023-08-12T15:15:08;97908.78;;;27.70;30.68
57086;BME280;42964;42.910;23.792;2023-08-12T15:20:07;97909.41;;;27.48;30.91
57086;BME280;42964;42.910;23.792;2023-08-12T15:25:08;97907.03;;;27.44;29.88
57086;BME280;42964;42.910;23.792;2023-08-12T15:30:08;97921.31;;;27.15;31.31
57086;BME280;42964;42.910;23.792;2023-08-12T15:35:07;97924.97;;;27.14;32.04
57086;BME280;42964;42.910;23.792;2023-08-12T15:40:08;97921.47;;;27.27;32.50
57086;BME280;42964;42.910;23.792;2023-08-12T15:45:08;97905.88;;;27.08;32.24
57086;BME280;42964;42.910;23.792;2023-08-12T15:50:07;97921.06;;;27.33;32.69
57086;BME280;42964;42.910;23.792;2023-08-12T15:55:07;97921.47;;;26.99;33.01
57086;BME280;42964;42.910;23.792;2023-08-12T16:00:06;97918.22;;;27.09;32.86
57086;BME280;42964;42.910;23.792;2023-08-12T16:05:07;97886.91;;;26.85;33.10
57086;BME280;42964;42.910;23.792;2023-08-12T16:10:06;97923.28;;;26.99;33.16
57086;BME280;42964;42.910;23.792;2023-08-12T16:15:05;97910.38;;;26.93;33.14
57086;BME280;42964;42.910;23.792;2023-08-12T16:20:05;97924.13;;;26.99;33.25
57086;BME280;42964;42.910;23.792;2023-08-12T16:25:06;97924.13;;;26.99;33.53
57086;BME280;42964;42.910;23.792;2023-08-12T16:30:06;97933.91;;;26.86;33.80
57086;BME280;42964;42.910;23.792;2023-08-12T16:35:06;97927.31;;;26.77;33.86
57086;BME280;42964;42.910;23.792;2023-08-12T16:40:06;97928.84;;;26.67;34.11
57086;BME280;42964;42.910;23.792;2023-08-12T16:45:06;97926.84;;;26.71;34.62
57086;BME280;42964;42.910;23.792;2023-08-12T16:50:06;97932.69;;;26.63;35.34
57086;BME280;42964;42.910;23.792;2023-08-12T16:55:05;97918.53;;;26.34;36.93
57086;BME280;42964;42.910;23.792;2023-08-12T17:00:05;97948.84;;;26.31;38.73
57086;BME280;42964;42.910;23.792;2023-08-12T17:05:05;97953.06;;;26.05;39.30
57086;BME280;42964;42.910;23.792;2023-08-12T17:10:05;97941.63;;;25.74;40.30
57086;BME280;42964;42.910;23.792;2023-08-12T17:15:05;97949.66;;;25.43;40.66
57086;BME280;42964;42.910;23.792;2023-08-12T17:20:05;97954.69;;;25.17;41.27
57086;BME280;42964;42.910;23.792;2023-08-12T17:25:05;97958.13;;;24.87;41.89
57086;BME280;42964;42.910;23.792;2023-08-12T17:30:04;97964.22;;;24.56;42.51
57086;BME280;42964;42.910;23.792;2023-08-12T17:35:04;97971.91;;;24.29;42.77
57086;BME280;42964;42.910;23.792;2023-08-12T17:40:03;97975.91;;;24.03;43.24
57086;BME280;42964;42.910;23.792;2023-08-12T17:45:03;97986.19;;;23.74;44.18
57086;BME280;42964;42.910;23.792;2023-08-12T17:50:03;97978.31;;;23.55;44.95
57086;BME280;42964;42.910;23.792;2023-08-12T17:55:02;97985.47;;;23.34;45.14
57086;BME280;42964;42.910;23.792;2023-08-12T18:00:01;97988.19;;;23.15;45.71
57086;BME280;42964;42.910;23.792;2023-08-12T18:05:01;97996.78;;;23.01;46.35
57086;BME280;42964;42.910;23.792;2023-08-12T18:10:00;97997.84;;;22.78;47.25
57086;BME280;42964;42.910;23.792;2023-08-12T18:14:59;98004.19;;;22.55;47.61
57086;BME280;42964;42.910;23.792;2023-08-12T18:19:58;98011.31;;;22.34;48.34
57086;BME280;42964;42.910;23.792;2023-08-12T18:24:57;98016.53;;;22.15;48.77
57086;BME280;42964;42.910;23.792;2023-08-12T18:29:56;98024.34;;;21.96;49.59
57086;BME280;42964;42.910;23.792;2023-08-12T18:34:55;98024.38;;;21.76;50.21
57086;BME280;42964;42.910;23.792;2023-08-12T18:39:54;98021.53;;;21.59;50.29
57086;BME280;42964;42.910;23.792;2023-08-12T18:44:53;98014.22;;;21.23;50.76
57086;BME280;42964;42.910;23.792;2023-08-12T18:49:52;98037.16;;;21.21;50.81
57086;BME280;42964;42.910;23.792;2023-08-12T18:54:51;98042.31;;;21.00;51.11
57086;BME280;42964;42.910;23.792;2023-08-12T18:59:50;98038.09;;;20.96;51.15
57086;BME280;42964;42.910;23.792;2023-08-12T19:04:49;98048.13;;;20.86;51.14
57086;BME280;42964;42.910;23.792;2023-08-12T19:09:48;98038.88;;;20.75;51.67
57086;BME280;42964;42.910;23.792;2023-08-12T19:14:47;98043.59;;;20.66;51.81
57086;BME280;42964;42.910;23.792;2023-08-12T19:19:46;98047.56;;;20.55;52.29
57086;BME280;42964;42.910;23.792;2023-08-12T19:24:45;98054.06;;;20.44;52.85
57086;BME280;42964;42.910;23.792;2023-08-12T19:29:44;98052.69;;;20.33;53.43
57086;BME280;42964;42.910;23.792;2023-08-12T19:34:43;98058.41;;;20.20;53.82
57086;BME280;42964;42.910;23.792;2023-08-12T19:39:42;98060.38;;;20.14;54.35
57086;BME280;42964;42.910;23.792;2023-08-12T19:44:41;98064.31;;;20.02;54.57
57086;BME280;42964;42.910;23.792;2023-08-12T19:49:40;98068.91;;;19.95;54.81
57086;BME280;42964;42.910;23.792;2023-08-12T19:54:39;98065.81;;;19.84;55.46
57086;BME280;42964;42.910;23.792;2023-08-12T19:59:38;98055.88;;;19.65;56.35
57086;BME280;42964;42.910;23.792;2023-08-12T20:04:37;98066.41;;;19.65;57.04
57086;BME280;42964;42.910;23.792;2023-08-12T20:09:36;98075.41;;;19.58;57.10
57086;BME280;42964;42.910;23.792;2023-08-12T20:14:35;98067.78;;;19.49;57.43
57086;BME280;42964;42.910;23.792;2023-08-12T20:19:34;98084.63;;;19.43;57.83
57086;BME280;42964;42.910;23.792;2023-08-12T20:24:33;98077.75;;;19.39;58.41
57086;BME280;42964;42.910;23.792;2023-08-12T20:29:32;98078.84;;;19.32;59.21
57086;BME280;42964;42.910;23.792;2023-08-12T20:34:31;98087.81;;;19.25;62.63
57086;BME280;42964;42.910;23.792;2023-08-12T20:39:30;98085.75;;;19.07;64.37
57086;BME280;42964;42.910;23.792;2023-08-12T20:44:30;98086.84;;;18.99;65.26
57086;BME280;42964;42.910;23.792;2023-08-12T20:49:29;98085.38;;;18.89;65.27
57086;BME280;42964;42.910;23.792;2023-08-12T20:54:28;98073.59;;;18.73;65.74
57086;BME280;42964;42.910;23.792;2023-08-12T20:59:28;98084.06;;;18.74;66.30
57086;BME280;42964;42.910;23.792;2023-08-12T21:04:27;98088.63;;;18.66;67.77
57086;BME280;42964;42.910;23.792;2023-08-12T21:09:26;98098.44;;;18.59;67.95
57086;BME280;42964;42.910;23.792;2023-08-12T21:14:25;98093.13;;;18.63;67.79
57086;BME280;42964;42.910;23.792;2023-08-12T21:19:24;98104.91;;;18.48;70.03
57086;BME280;42964;42.910;23.792;2023-08-12T21:24:23;98101.66;;;18.39;70.41
57086;BME280;42964;42.910;23.792;2023-08-12T21:29:23;98105.22;;;18.37;70.09
57086;BME280;42964;42.910;23.792;2023-08-12T21:34:22;98087.47;;;18.12;70.30
57086;BME280;42964;42.910;23.792;2023-08-12T21:39:21;98107.41;;;18.19;69.94
57086;BME280;42964;42.910;23.792;2023-08-12T21:44:20;98101.59;;;18.08;70.22
57086;BME280;42964;42.910;23.792;2023-08-12T21:49:19;98093.91;;;18.01;70.87
57086;BME280;42964;42.910;23.792;2023-08-12T21:54:18;98093.13;;;17.97;70.99
57086;BME280;42964;42.910;23.792;2023-08-12T21:59:18;98107.94;;;18.00;71.09
57086;BME280;42964;42.910;23.792;2023-08-12T22:04:17;98104.63;;;17.91;73.00
57086;BME280;42964;42.910;23.792;2023-08-12T22:09:16;98107.56;;;17.79;73.17
57086;BME280;42964;42.910;23.792;2023-08-12T22:14:15;98085.19;;;17.63;73.21
57086;BME280;42964;42.910;23.792;2023-08-12T22:19:14;98100.84;;;17.66;73.70
57086;BME280;42964;42.910;23.792;2023-08-12T22:24:13;98104.50;;;17.60;73.91
57086;BME280;42964;42.910;23.792;2023-08-12T22:29:12;98104.56;;;17.57;74.50
57086;BME280;42964;42.910;23.792;2023-08-12T22:34:13;98096.06;;;17.47;74.91
57086;BME280;42964;42.910;23.792;2023-08-12T22:39:12;98097.88;;;17.44;74.89
57086;BME280;42964;42.910;23.792;2023-08-12T22:44:11;98100.63;;;17.38;75.73
57086;BME280;42964;42.910;23.792;2023-08-12T22:49:10;98092.97;;;17.28;76.48
57086;BME280;42964;42.910;23.792;2023-08-12T22:54:08;98074.13;;;17.12;76.75
57086;BME280;42964;42.910;23.792;2023-08-12T22:59:08;98100.34;;;17.12;77.36
57086;BME280;42964;42.910;23.792;2023-08-12T23:04:07;98068.34;;;16.95;77.41
57086;BME280;42964;42.910;23.792;2023-08-12T23:09:06;98092.50;;;17.11;77.38
57086;BME280;42964;42.910;23.792;2023-08-12T23:14:05;98096.81;;;17.12;78.37
57086;BME280;42964;42.910;23.792;2023-08-12T23:19:04;98085.84;;;16.96;79.11
57086;BME280;42964;42.910;23.792;2023-08-12T23:24:03;98087.72;;;16.89;79.15
57086;BME280;42964;42.910;23.792;2023-08-12T23:29:02;98089.44;;;16.90;78.63
57086;BME280;42964;42.910;23.792;2023-08-12T23:34:01;98088.59;;;16.88;78.82
57086;BME280;42964;42.910;23.792;2023-08-12T23:39:00;98085.94;;;16.90;78.66
57086;BME280;42964;42.910;23.792;2023-08-12T23:43:59;98093.97;;;16.82;79.21
57086;BME280;42964;42.910;23.792;2023-08-12T23:48:57;98095.00;;;16.72;79.85
57086;BME280;42964;42.910;23.792;2023-08-12T23:53:56;98110.91;;;16.64;80.56
57086;BME280;42964;42.910;23.792;2023-08-12T23:58:55;98066.19;;;16.28;81.54
